createdAt,value
2023-02-26T00:00:15.303Z,64.15
2023-02-26T00:03:21.554Z,64.27
2023-02-26T00:06:29.740Z,64.24
2023-02-26T00:09:36.300Z,64.13
2023-02-26T00:12:43.864Z,64.22
2023-02-26T00:15:52.585Z,64.35
2023-02-26T00:19:00.405Z,64.53
2023-02-26T00:22:08.020Z,64.69
2023-02-26T00:25:14.834Z,64.13
2023-02-26T00:28:22.191Z,64.21
2023-02-26T00:31:29.241Z,64.27
2023-02-26T00:34:36.470Z,64.12
2023-02-26T00:38:03.170Z,64.07
2023-02-26T00:41:11.242Z,64.11
2023-02-26T00:44:18.705Z,63.95
2023-02-26T00:47:32.595Z,63.80
2023-02-26T00:50:44.585Z,63.76
2023-02-26T00:54:00.368Z,63.64
2023-02-26T00:57:06.900Z,63.50
2023-02-26T01:00:16.634Z,63.22
2023-02-26T01:03:23.809Z,63.16
2023-02-26T01:06:33.979Z,62.92
2023-02-26T01:09:41.318Z,63.04
2023-02-26T01:12:48.825Z,62.89
2023-02-26T01:16:04.436Z,62.90
2023-02-26T01:19:19.623Z,63.03
2023-02-26T01:22:31.083Z,63.11
2023-02-26T01:25:43.105Z,63.20
2023-02-26T01:28:50.542Z,63.39
2023-02-26T01:32:03.628Z,63.07
2023-02-26T01:35:18.035Z,63.07
2023-02-26T01:38:32.312Z,63.18
2023-02-26T01:41:44.502Z,63.14
2023-02-26T01:45:01.044Z,63.20
2023-02-26T01:48:13.071Z,62.97
2023-02-26T01:51:19.724Z,63.11
2023-02-26T01:54:27.246Z,63.08
2023-02-26T01:57:33.513Z,63.12
2023-02-26T02:00:39.854Z,62.89
2023-02-26T02:03:44.780Z,62.68
2023-02-26T02:06:51.465Z,62.99
2023-02-26T02:09:57.597Z,62.92
2023-02-26T02:13:11.478Z,62.74
2023-02-26T02:16:28.977Z,62.69
2023-02-26T02:19:59.227Z,62.59
2023-02-26T02:23:12.601Z,62.80
2023-02-26T02:26:51.798Z,62.78
2023-02-26T02:30:38.409Z,62.90
2023-02-26T02:33:51.242Z,62.73
2023-02-26T02:37:01.070Z,62.84
2023-02-26T02:40:14.175Z,62.88
2023-02-26T02:43:22.525Z,62.75
2023-02-26T02:46:31.639Z,62.98
2023-02-26T02:49:44.988Z,62.91
2023-02-26T02:52:55.803Z,62.78
2023-02-26T02:56:08.885Z,62.68
2023-02-26T02:59:22.131Z,62.61
2023-02-26T03:02:35.309Z,62.70
2023-02-26T03:05:41.634Z,62.77
2023-02-26T03:08:47.979Z,62.87
2023-02-26T03:11:54.144Z,63.13
2023-02-26T03:15:00.950Z,62.74
2023-02-26T03:18:17.324Z,62.89
2023-02-26T03:21:33.140Z,62.71
2023-02-26T03:24:47.326Z,62.78
2023-02-26T03:28:00.584Z,62.16
2023-02-26T03:31:13.547Z,62.35
2023-02-26T03:34:27.497Z,62.42
2023-02-26T03:37:39.978Z,62.46
2023-02-26T03:40:51.173Z,62.54
2023-02-26T03:44:01.516Z,62.79
2023-02-26T03:47:13.121Z,62.65
2023-02-26T03:50:26.670Z,62.57
2023-02-26T03:53:40.950Z,62.77
2023-02-26T03:56:49.227Z,62.60
2023-02-26T03:59:56.008Z,62.65
2023-02-26T04:03:09.261Z,62.69
2023-02-26T04:06:16.811Z,62.61
2023-02-26T04:09:23.734Z,62.99
2023-02-26T04:12:30.815Z,63.06
2023-02-26T04:15:37.482Z,62.72
2023-02-26T04:18:44.250Z,62.67
2023-02-26T04:21:50.837Z,62.57
2023-02-26T04:24:57.061Z,62.85
2023-02-26T04:28:03.312Z,62.66
2023-02-26T04:31:10.410Z,62.55
2023-02-26T04:34:16.817Z,62.63
2023-02-26T04:37:21.294Z,62.90
2023-02-26T04:40:27.737Z,62.65
2023-02-26T04:43:34.415Z,61.96
2023-02-26T04:46:40.627Z,62.15
2023-02-26T04:49:46.738Z,60.85
2023-02-26T04:52:53.010Z,59.12
2023-02-26T04:55:57.522Z,59.57
2023-02-26T04:59:03.734Z,60.64
2023-02-26T05:02:10.042Z,64.03
2023-02-26T05:05:14.516Z,64.71
2023-02-26T05:08:20.613Z,63.86
2023-02-26T05:11:26.867Z,63.34
2023-02-26T05:14:31.407Z,62.34
2023-02-26T05:17:38.529Z,62.50
2023-02-26T05:20:44.702Z,62.04
2023-02-26T05:23:51.170Z,61.23
2023-02-26T05:26:57.436Z,61.72
2023-02-26T05:30:03.882Z,61.39
2023-02-26T05:33:10.139Z,61.39
2023-02-26T05:36:16.421Z,61.89
2023-02-26T05:39:20.932Z,61.84
2023-02-26T05:42:27.164Z,61.90
2023-02-26T05:45:33.410Z,61.41
2023-02-26T05:48:39.650Z,61.59
2023-02-26T05:51:45.916Z,61.79
2023-02-26T05:54:50.530Z,61.55
2023-02-26T05:57:56.667Z,61.08
2023-02-26T06:01:03.140Z,60.36
2023-02-26T06:04:09.637Z,60.12
2023-02-26T06:07:16.116Z,59.04
2023-02-26T06:10:22.607Z,57.84
2023-02-26T06:13:28.860Z,59.09
2023-02-26T06:16:35.978Z,59.76
2023-02-26T06:19:42.293Z,60.48
2023-02-26T06:22:46.772Z,62.79
2023-02-26T06:25:53.452Z,64.38
2023-02-26T06:28:59.716Z,63.90
2023-02-26T06:32:06.268Z,62.81
2023-02-26T06:35:13.441Z,62.18
2023-02-26T06:38:20.138Z,61.59
2023-02-26T06:41:26.501Z,61.34
2023-02-26T06:44:30.977Z,60.47
2023-02-26T06:47:37.235Z,60.55
2023-02-26T06:50:43.420Z,60.30
2023-02-26T06:53:49.582Z,59.46
2023-02-26T06:56:57.810Z,58.55
2023-02-26T07:00:05.560Z,59.38
2023-02-26T07:03:14.070Z,59.97
2023-02-26T07:06:38.719Z,61.81
2023-02-26T07:09:46.114Z,62.79
2023-02-26T07:12:52.704Z,61.61
2023-02-26T07:15:58.972Z,61.02
2023-02-26T07:19:05.222Z,59.29
2023-02-26T07:22:09.768Z,59.05
2023-02-26T07:25:16.584Z,60.17
2023-02-26T07:28:23.421Z,62.30
2023-02-26T07:31:29.725Z,62.73
2023-02-26T07:34:34.248Z,62.48
2023-02-26T07:37:40.564Z,61.13
2023-02-26T07:40:45.169Z,60.15
2023-02-26T07:43:51.488Z,59.45
2023-02-26T07:46:55.944Z,61.04
2023-02-26T07:50:02.322Z,60.52
2023-02-26T07:53:06.977Z,63.50
2023-02-26T07:56:13.233Z,64.82
2023-02-26T07:59:19.541Z,64.39
2023-02-26T08:02:24.702Z,63.21
2023-02-26T08:05:31.105Z,62.61
2023-02-26T08:08:37.476Z,62.53
2023-02-26T08:11:43.390Z,62.63
2023-02-26T08:14:48.122Z,62.69
2023-02-26T08:17:56.900Z,62.35
2023-02-26T08:21:03.105Z,61.04
2023-02-26T08:24:09.793Z,59.80
2023-02-26T08:27:16.099Z,56.94
2023-02-26T08:30:22.715Z,57.14
2023-02-26T08:33:29.111Z,58.10
2023-02-26T08:36:34.263Z,58.97
2023-02-26T08:39:40.871Z,57.99
2023-02-26T08:42:47.220Z,60.04
2023-02-26T08:45:53.160Z,61.68
2023-02-26T08:48:57.674Z,63.68
2023-02-26T08:52:04.161Z,63.40
2023-02-26T08:55:12.015Z,61.56
2023-02-26T08:58:18.397Z,60.60
2023-02-26T09:01:22.976Z,59.30
2023-02-26T09:04:31.180Z,58.04
2023-02-26T09:07:37.690Z,58.34
2023-02-26T09:10:44.084Z,60.90
2023-02-26T09:13:50.367Z,63.64
2023-02-26T09:16:56.658Z,64.94
2023-02-26T09:20:01.171Z,65.06
2023-02-26T09:23:07.450Z,64.88
2023-02-26T09:26:11.987Z,64.73
2023-02-26T09:29:18.231Z,64.49
2023-02-26T09:32:26.424Z,63.97
2023-02-26T09:35:32.703Z,64.15
2023-02-26T09:38:39.012Z,64.48
2023-02-26T09:41:45.907Z,63.81
2023-02-26T09:44:54.199Z,63.22
2023-02-26T09:48:03.109Z,63.41
2023-02-26T09:51:14.016Z,62.42
2023-02-26T09:54:24.339Z,62.17
2023-02-26T09:57:34.040Z,61.91
2023-02-26T10:00:48.890Z,61.69
2023-02-26T10:04:04.731Z,60.10
2023-02-26T10:07:22.262Z,60.29
2023-02-26T10:10:36.686Z,57.39
2023-02-26T10:13:57.286Z,57.90
2023-02-26T10:17:08.849Z,61.01
2023-02-26T10:20:21.411Z,61.90
2023-02-26T10:23:37.748Z,61.58
2023-02-26T10:26:48.970Z,61.14
2023-02-26T10:30:01.801Z,60.58
2023-02-26T10:33:20.170Z,60.12
2023-02-26T10:36:30.868Z,57.99
2023-02-26T10:39:45.743Z,58.60
2023-02-26T10:42:55.366Z,60.04
2023-02-26T10:46:11.467Z,58.82
2023-02-26T10:49:30.664Z,59.17
2023-02-26T10:52:39.046Z,60.50
2023-02-26T10:55:48.383Z,64.33
2023-02-26T10:58:55.483Z,65.48
2023-02-26T11:02:02.332Z,64.58
2023-02-26T11:05:16.781Z,63.49
2023-02-26T11:08:27.715Z,62.47
2023-02-26T11:11:47.332Z,60.28
2023-02-26T11:14:54.105Z,56.86
2023-02-26T11:18:02.741Z,56.23
2023-02-26T11:21:10.280Z,56.83
2023-02-26T11:24:20.947Z,57.27
2023-02-26T11:27:31.933Z,57.93
2023-02-26T11:30:40.085Z,58.54
2023-02-26T11:33:50.739Z,59.03
2023-02-26T11:37:00.180Z,60.20
2023-02-26T11:40:16.064Z,62.49
2023-02-26T11:43:24.539Z,64.81
2023-02-26T11:46:31.192Z,64.15
2023-02-26T11:49:42.862Z,62.77
2023-02-26T11:52:55.798Z,60.29
2023-02-26T11:56:05.119Z,57.29
2023-02-26T11:59:21.019Z,55.11
2023-02-26T12:02:32.712Z,56.53
2023-02-26T12:05:39.743Z,57.83
2023-02-26T12:08:46.039Z,58.30
2023-02-26T12:12:00.941Z,57.71
2023-02-26T12:15:21.888Z,57.78
2023-02-26T12:18:38.087Z,58.87
2023-02-26T12:21:53.530Z,58.61
2023-02-26T12:25:17.752Z,59.10
2023-02-26T12:29:07.968Z,61.42
2023-02-26T12:32:26.941Z,62.25
2023-02-26T12:35:56.171Z,59.28
2023-02-26T12:39:16.275Z,59.45
2023-02-26T12:42:34.183Z,60.85
2023-02-26T12:45:54.216Z,60.61
2023-02-26T12:49:17.408Z,60.89
2023-02-26T12:52:42.108Z,62.45
2023-02-26T12:55:58.588Z,62.60
2023-02-26T12:59:18.113Z,62.20
2023-02-26T13:02:57.924Z,62.40
2023-02-26T13:06:27.291Z,61.53
2023-02-26T13:09:42.547Z,60.26
2023-02-26T13:13:12.473Z,58.45
2023-02-26T13:16:38.640Z,58.51
2023-02-26T13:19:49.363Z,59.30
2023-02-26T13:23:01.062Z,60.74
2023-02-26T13:26:11.021Z,62.27
2023-02-26T13:29:22.417Z,63.91
2023-02-26T13:32:30.204Z,64.10
2023-02-26T13:35:38.788Z,63.33
2023-02-26T13:39:11.422Z,61.73
2023-02-26T13:42:28.882Z,59.63
2023-02-26T13:45:47.701Z,58.36
2023-02-26T13:49:00.659Z,59.38
2023-02-26T13:52:06.990Z,60.84
2023-02-26T13:55:36.591Z,62.95
2023-02-26T13:58:44.203Z,62.12
2023-02-26T14:01:55.302Z,62.25
2023-02-26T14:05:02.559Z,62.50
2023-02-26T14:08:27.658Z,61.41
2023-02-26T14:12:01.057Z,59.93
2023-02-26T14:15:41.672Z,60.00
2023-02-26T14:18:54.850Z,61.70
2023-02-26T14:22:15.983Z,63.17
2023-02-26T14:25:33.151Z,62.42
2023-02-26T14:28:47.338Z,61.59
2023-02-26T14:32:16.558Z,60.95
2023-02-26T14:35:26.691Z,59.18
2023-02-26T14:38:37.368Z,58.67
2023-02-26T14:41:44.638Z,59.11
2023-02-26T14:44:53.942Z,60.90
2023-02-26T14:48:02.658Z,61.41
2023-02-26T14:51:21.896Z,62.49
2023-02-26T14:54:50.187Z,61.87
2023-02-26T14:58:06.256Z,60.88
2023-02-26T15:01:22.079Z,60.43
2023-02-26T15:04:51.141Z,60.17
2023-02-26T15:08:14.428Z,58.47
2023-02-26T15:11:35.553Z,58.74
2023-02-26T15:15:11.310Z,60.79
2023-02-26T15:18:22.798Z,61.34
2023-02-26T15:21:40.390Z,61.24
2023-02-26T15:24:47.434Z,63.08
2023-02-26T15:27:54.240Z,62.78
2023-02-26T15:31:02.306Z,61.49
2023-02-26T15:34:12.698Z,60.42
2023-02-26T15:37:28.344Z,59.99
2023-02-26T15:40:37.427Z,59.17
2023-02-26T15:43:47.812Z,57.93
2023-02-26T15:46:59.429Z,58.72
2023-02-26T15:50:06.805Z,59.98
2023-02-26T15:53:19.904Z,61.33
2023-02-26T15:56:29.639Z,62.64
2023-02-26T15:59:41.825Z,63.25
2023-02-26T16:02:50.621Z,63.12
2023-02-26T16:05:59.078Z,61.87
2023-02-26T16:09:07.689Z,60.23
2023-02-26T16:12:17.805Z,60.53
2023-02-26T16:15:31.131Z,59.08
2023-02-26T16:18:38.061Z,58.75
2023-02-26T16:21:45.050Z,59.58
2023-02-26T16:24:58.969Z,61.63
2023-02-26T16:28:08.278Z,63.54
2023-02-26T16:31:21.146Z,62.90
2023-02-26T16:34:41.618Z,61.17
2023-02-26T16:37:50.165Z,60.19
2023-02-26T16:41:03.906Z,60.09
2023-02-26T16:44:40.809Z,59.87
2023-02-26T16:47:48.693Z,58.74
2023-02-26T16:51:01.324Z,59.61
2023-02-26T16:54:10.622Z,61.28
2023-02-26T16:57:21.683Z,63.08
2023-02-26T17:00:31.294Z,63.71
2023-02-26T17:03:40.730Z,62.91
2023-02-26T17:06:48.280Z,62.01
2023-02-26T17:09:58.531Z,61.19
2023-02-26T17:13:16.510Z,60.05
2023-02-26T17:16:23.358Z,57.97
2023-02-26T17:19:29.745Z,58.73
2023-02-26T17:22:36.154Z,59.85
2023-02-26T17:25:45.478Z,60.83
2023-02-26T17:28:51.999Z,62.11
2023-02-26T17:31:58.365Z,63.88
2023-02-26T17:35:03.252Z,63.56
2023-02-26T17:38:13.405Z,62.95
2023-02-26T17:41:20.974Z,62.48
2023-02-26T17:44:27.225Z,61.82
2023-02-26T17:47:40.043Z,61.49
2023-02-26T17:50:54.480Z,60.95
2023-02-26T17:54:04.688Z,60.55
2023-02-26T17:57:22.196Z,60.29
2023-02-26T18:00:31.639Z,59.30
2023-02-26T18:03:42.123Z,59.29
2023-02-26T18:06:52.624Z,61.01
2023-02-26T18:10:04.663Z,62.68
2023-02-26T18:13:24.188Z,64.34
2023-02-26T18:16:37.302Z,64.51
2023-02-26T18:19:53.423Z,63.57
2023-02-26T18:23:04.983Z,62.28
2023-02-26T18:26:18.901Z,62.19
2023-02-26T18:29:27.401Z,62.07
2023-02-26T18:32:36.818Z,62.53
2023-02-26T18:35:46.051Z,61.80
2023-02-26T18:38:52.260Z,61.21
2023-02-26T18:41:58.500Z,60.95
2023-02-26T18:45:05.149Z,61.27
2023-02-26T18:48:13.220Z,61.37
2023-02-26T18:51:19.560Z,60.77
2023-02-26T18:54:24.209Z,60.51
2023-02-26T18:57:30.774Z,60.65
2023-02-26T19:00:37.103Z,59.95
2023-02-26T19:03:41.672Z,58.57
2023-02-26T19:06:48.005Z,57.98
2023-02-26T19:09:52.672Z,59.03
2023-02-26T19:12:59.153Z,58.69
2023-02-26T19:16:05.738Z,60.63
2023-02-26T19:19:12.954Z,63.03
2023-02-26T19:22:19.310Z,64.56
2023-02-26T19:25:27.108Z,64.05
2023-02-26T19:28:33.614Z,63.90
2023-02-26T19:31:40.454Z,62.58
2023-02-26T19:34:46.952Z,61.84
2023-02-26T19:37:51.467Z,61.26
2023-02-26T19:40:57.927Z,60.91
2023-02-26T19:44:04.235Z,60.46
2023-02-26T19:47:08.772Z,59.96
2023-02-26T19:50:16.879Z,60.02
2023-02-26T19:53:23.215Z,59.67
2023-02-26T19:56:27.739Z,58.25
2023-02-26T19:59:34.202Z,57.42
2023-02-26T20:02:40.751Z,58.75
2023-02-26T20:05:48.033Z,59.90
2023-02-26T20:08:54.462Z,60.52
2023-02-26T20:12:01.372Z,61.28
2023-02-26T20:15:09.499Z,62.91
2023-02-26T20:18:16.052Z,64.73
2023-02-26T20:21:23.497Z,63.94
2023-02-26T20:24:30.911Z,63.20
2023-02-26T20:27:37.722Z,62.77
2023-02-26T20:30:43.983Z,62.46
2023-02-26T20:33:50.143Z,61.55
2023-02-26T20:36:56.846Z,61.48
2023-02-26T20:40:05.354Z,61.49
2023-02-26T20:43:12.438Z,61.20
2023-02-26T20:46:18.837Z,60.70
2023-02-26T20:49:25.709Z,60.79
2023-02-26T20:52:32.013Z,60.69
2023-02-26T20:55:36.725Z,60.58
2023-02-26T20:58:42.754Z,61.05
2023-02-26T21:01:51.389Z,61.11
2023-02-26T21:04:57.590Z,60.23
2023-02-26T21:08:04.317Z,59.71
2023-02-26T21:11:10.598Z,59.56
2023-02-26T21:14:16.839Z,58.68
2023-02-26T21:17:21.770Z,58.07
2023-02-26T21:20:28.008Z,58.66
2023-02-26T21:23:34.176Z,60.28
2023-02-26T21:26:40.461Z,61.13
2023-02-26T21:29:45.260Z,63.54
2023-02-26T21:32:51.929Z,65.31
2023-02-26T21:35:58.471Z,65.26
2023-02-26T21:39:05.741Z,64.15
2023-02-26T21:42:14.140Z,63.40
2023-02-26T21:45:20.591Z,62.79
2023-02-26T21:48:26.776Z,62.71
2023-02-26T21:51:32.977Z,61.67
2023-02-26T21:54:37.647Z,61.73
2023-02-26T21:57:44.330Z,61.34
2023-02-26T22:00:50.709Z,61.04
2023-02-26T22:03:55.290Z,60.52
2023-02-26T22:07:01.549Z,60.37
2023-02-26T22:10:10.041Z,60.66
2023-02-26T22:13:16.313Z,59.99
2023-02-26T22:16:22.972Z,59.70
2023-02-26T22:19:29.252Z,58.35
2023-02-26T22:22:35.460Z,58.11
2023-02-26T22:25:41.680Z,59.03
2023-02-26T22:28:47.969Z,60.66
2023-02-26T22:31:54.168Z,60.94
2023-02-26T22:35:00.563Z,60.20
2023-02-26T22:38:05.088Z,63.72
2023-02-26T22:41:11.392Z,66.31
2023-02-26T22:44:15.866Z,65.63
2023-02-26T22:47:22.022Z,64.84
2023-02-26T22:50:28.168Z,63.04
2023-02-26T22:53:34.379Z,61.92
2023-02-26T22:56:40.552Z,61.08
2023-02-26T22:59:46.681Z,60.76
2023-02-26T23:02:53.508Z,60.63
2023-02-26T23:06:00.198Z,60.09
2023-02-26T23:09:07.080Z,59.66
2023-02-26T23:12:14.107Z,57.62
2023-02-26T23:15:20.416Z,57.32
2023-02-26T23:18:24.983Z,58.25
2023-02-26T23:21:31.991Z,58.66
2023-02-26T23:24:38.273Z,60.27
2023-02-26T23:27:43.264Z,61.18
2023-02-26T23:30:49.612Z,60.69
2023-02-26T23:33:54.215Z,63.79
2023-02-26T23:37:00.453Z,65.80
2023-02-26T23:40:08.144Z,64.14
2023-02-26T23:43:14.286Z,62.81
2023-02-26T23:46:20.563Z,61.95
2023-02-26T23:49:25.104Z,61.12
2023-02-26T23:52:31.417Z,61.00
2023-02-26T23:55:35.909Z,60.18
2023-02-26T23:58:42.196Z,60.27
